Aviation Digital Data Service (ADDS)

Output produced by METARs form (2307 UTC 01 March 2021)
found at http://aviationweather.gov/metar/data/
 
KBOS 012254Z 28018G33KT 10SM FEW035 SCT130 03/M05 A2954 RMK AO2 PK WND 28034/2233 SLP001 T00331050
KBOS 011722Z 0118/0224 28011KT P6SM -SHRA OVC008 
     FM012000 28012KT P6SM OVC035 
     FM012200 28015G30KT P6SM BKN100 
     FM020300 29019G40KT P6SM FEW250
       
KLGA 012251Z 31025G32KT 10SM FEW032 SCT250 07/M08 A2973 RMK AO2 PK WND 31037/2226 PRESRR SLP066 T00721078
KLGA 012030Z 0121/0224 31020G32KT P6SM BKN035 
     FM020200 30024G40KT P6SM SKC 
     FM021200 30019G31KT P6SM FEW040 
     FM022100 28014G22KT P6SM FEW250
       
KJFK 012251Z 31022G29KT 10SM FEW048 SCT065 SCT250 07/M07 A2972 RMK AO2 PK WND 30031/2240 SLP065 T00721072
KJFK 012030Z 0121/0224 30020G32KT P6SM BKN040 
     FM020200 30027G41KT P6SM SKC 
     FM021200 31020G32KT P6SM FEW040 
     FM022100 28014G22KT P6SM FEW250
       
KEWR 012251Z 30015G22KT 10SM FEW055 FEW120 SCT240 07/M07 A2974 RMK AO2 PK WND 29026/2225 PRESRR SLP071 T00671072
KEWR 012030Z 0121/0224 30017G30KT P6SM BKN035 
     FM020200 29023G41KT P6SM SKC 
     FM021200 30019G29KT P6SM FEW040 
     FM022100 28015G22KT P6SM FEW250
       
KPHL 012254Z 30022G30KT 10SM FEW045 SCT110 BKN240 08/M08 A2982 RMK AO2 PK WND 30036/2240 SLP099 T00781078
KPHL 012108Z 0121/0224 30022G30KT P6SM FEW025 SCT110 
     FM020100 31023G39KT P6SM FEW250 
     FM021200 31014G28KT P6SM SKC 
     FM021700 30012G22KT P6SM FEW250
       
KBWI 012254Z 30012KT 10SM SCT080 SCT160 BKN250 09/M06 A2989 RMK AO2 PK WND 29039/2213 RAE30 SLP122 P0000 T00891056
KBWI 012105Z 0121/0224 31019G28KT P6SM FEW045 BKN250 
     FM012300 30025G40KT P6SM SCT250 
     FM020400 31014G29KT P6SM FEW250 
     FM022100 28011G23KT P6SM FEW250 
     FM022300 27009KT P6SM FEW250
       
KDCA 012252Z 30011G22KT 10SM SCT070 SCT210 SCT240 10/M04 A2992 RMK AO2 PK WND 29031/2237 SLP131 T01001044
KDCA 012105Z 0121/0224 30017G25KT P6SM FEW070 BKN200 
     FM012300 31020G35KT P6SM FEW050 SCT250 
     FM021600 32013G27KT P6SM FEW250 
     FM022100 28010G20KT P6SM FEW250 
     FM022300 20007KT P6SM FEW250
       
KIAD 012252Z 30022G34KT 10SM SCT080 BKN230 BKN250 08/M04 A2993 RMK AO2 PK WND 30034/2249 PRESRR SLP136 T00831044
KIAD 012105Z 0121/0224 30018G30KT P6SM FEW035 BKN250 
     FM012300 31025G40KT P6SM FEW050 SCT250 
     FM020400 31014G29KT P6SM FEW250 
     FM022100 28010G20KT P6SM FEW250 
     FM022200 26009KT P6SM FEW250 
     FM022300 20008KT P6SM FEW250
       
KCLT 012252Z 31005KT 10SM FEW055 FEW075 BKN100 OVC250 14/M01 A3003 RMK AO2 RAB22E33 SLP164 P0000 T01441011
KCLT 012159Z 0122/0224 31010G18KT P6SM VCSH SCT040 OVC110 
     FM020100 32010KT P6SM SCT070 OVC150 
     FM020500 36008KT P6SM SCT250 
     FM021300 05008KT P6SM SCT250 
     FM022000 14004KT P6SM SCT100 BKN200
       
KATL 012252Z 33010KT 10SM FEW020 BKN085 OVC100 14/09 A3013 RMK AO2 SLP199 T01390094
KATL 012156Z 0122/0224 32010KT P6SM VCSH SCT020 OVC080 
     FM021000 01005KT P6SM BKN250 
     FM021200 05005KT P6SM BKN150 
     FM021500 09010KT P6SM VCSH BKN150 
     FM021800 11009KT 6SM SHRA OVC070 
     FM022100 10009KT 6SM SHRA OVC025
       
KTPA 012253Z 22006KT 10SM FEW026 SCT140 SCT250 26/21 A3003 RMK AO2 SLP170 T02560206
KTPA 012112Z 0121/0224 21012KT P6SM SCT030 
     FM012200 24009KT P6SM SCT040 SCT250 
     FM020300 VRB05KT 6SM BR FEW005 BKN040 BKN250 
     FM020600 VRB03KT 5SM BR SCT005 OVC030 
     TEMPO 0210/0213 2SM BR BKN005 OVC030 
     FM021400 07005KT P6SM SCT010 BKN030 BKN250 
     FM021800 17006KT P6SM SCT040 BKN250 
     FM022100 24007KT P6SM SCT040 BKN250
       
KMCO 012253Z 28007KT 10SM FEW055 BKN300 29/18 A3000 RMK AO2 SLP158 T02890178
KMCO 012110Z 0121/0224 23010KT P6SM SCT045 BKN300 
     FM020100 25004KT P6SM SCT050 BKN120 
     FM020300 30005KT P6SM SCT050 BKN120 
     FM020900 35005KT P6SM BKN025 
     FM021500 05009KT P6SM BKN020
       
KMIA 012253Z 14011KT 10SM FEW021 FEW250 26/21 A3005 RMK AO2 SLP174 T02610211
KMIA 012054Z 0121/0224 14010KT P6SM SCT025 BKN040 
     FM020200 VRB03KT P6SM SCT020 
     FM020900 VRB03KT 6SM BR FEW010 SCT020 
     FM021400 14008KT P6SM SCT030 BKN050
       
KFLL 012253Z 16012KT 10SM FEW025 27/21 A3005
KFLL 012053Z 0121/0224 15015KT P6SM SCT025 BKN040 
     FM020200 VRB03KT P6SM SCT020 
     FM021400 14008KT P6SM SCT030 BKN050
       
KDTW 012253Z 32015G22KT 10SM CLR M01/M14 A3018 RMK AO2 PK WND 29031/2154 SLP228 T10061139
KDTW 012105Z 0121/0224 30017G27KT P6SM SCT050 
     FM012300 30013G20KT P6SM SCT050 
     FM020300 28007KT P6SM SKC 
     FM021200 21008KT P6SM SKC
       
KORD 012251Z 30009KT 10SM CLR 00/M13 A3031 RMK AO2 SLP272 T00001133
KORD 012100Z 0121/0224 34011G18KT P6SM SCT035 
     FM020100 29005KT P6SM SKC 
     FM021200 19011G18KT P6SM SKC
       
KMDW 012253Z 32005KT 10SM FEW038 01/M12 A3031 RMK AO2 SLP278 T00061122
KMDW 012240Z 0123/0224 34011KT P6SM FEW040 
     FM020100 29005KT P6SM SKC 
     FM021200 19011G17KT P6SM SKC
       
KMSP 012253Z 23004KT 10SM CLR M04/M18 A3037 RMK AO2 SLP299 T10441178
KMSP 012108Z 0121/0224 32005KT P6SM SKC 
     FM020000 18005KT P6SM SKC 
     FM021000 17011KT P6SM SKC WS020/24050KT 
     FM021600 20014G22KT P6SM SKC
       
KMEM 012254Z 03008KT 10SM SCT120 BKN180 BKN250 09/M01 A3029 RMK AO2 SLP255 T00891011 $
KMEM 012116Z 0121/0224 04008KT P6SM SCT100 OVC250 
     FM020000 05006KT P6SM BKN250 
     FM021600 08008KT P6SM VCSH BKN040 OVC080 
     FM022100 36005KT P6SM -RA BKN025
       
KDFW 012253Z 01011KT 10SM FEW030 BKN100 BKN130 14/01 A3025 RMK AO2 SLP240 T01390006
KDFW 012058Z 0121/0224 01011KT P6SM FEW030 BKN100 
     FM020300 35009KT P6SM -RA BKN050 
     FM020900 01008KT P6SM BKN035 
     FM021500 35006KT P6SM FEW035
       
KIAH 012253Z 03016G26KT 10SM OVC018 14/10 A3009 RMK AO2 PK WND 04026/2235 LTG DSNT N SLP189 T01440100
KIAH 012118Z 0121/0224 03016KT P6SM -RA OVC014 
     TEMPO 0200/0203 3SM TSRA BR BKN008 OVC015CB 
     FM020300 01011KT 6SM SHRA BR OVC010 
     FM020900 35011KT P6SM VCSH OVC007 
     FM021200 35011KT P6SM BKN012 
     FM021900 35010KT P6SM SCT080
       
KDEN 012253Z 16008KT 10SM CLR 10/M10 A3019 RMK AO2 SLP225 T01001100
KDEN 012058Z 0121/0224 15010KT P6SM SKC 
     FM020300 20010KT P6SM SKC 
     FM021600 28006KT P6SM SKC 
     FM022000 04007KT P6SM FEW200
       
KSLC 012254Z VRB04KT 10SM CLR 08/M07 A3029 RMK AO2 SLP255 T00781072
KSLC 012103Z 0121/0224 30005KT P6SM SKC 
     FM020300 15005KT P6SM SKC 
     FM021900 30005KT P6SM SCT250
       
KSEA 012253Z 21010KT 10SM FEW050 FEW140 SCT250 13/03 A3005 RMK AO2 SLP184 T01330033
KSEA 012101Z 0121/0224 22006KT P6SM SCT120 BKN200 
     FM020600 20005KT P6SM BKN030 OVC050 
     FM021300 23005KT P6SM SCT020 OVC025 
     FM022100 24005KT P6SM BKN050 BKN120
       
KSFO 012256Z 18017KT 10SM CLR 21/M04 A3005 RMK AO2 SLP176 T02061039
KSFO 012106Z 0121/0224 04007KT P6SM FEW200 
     FM012200 22010KT P6SM SKC 
     FM020300 VRB05KT P6SM SCT200 
     FM022000 29010KT P6SM SCT200
       
KLAX 012253Z 23010KT 10SM CLR 21/M09 A3009 RMK AO2 SLP187 T02061094
KLAX 012022Z 0120/0224 08006KT P6SM SKC 
     FM012100 25010KT P6SM SCT250 
     FM020200 27005KT P6SM SCT250 
     FM020500 VRB03KT P6SM SCT250 
     FM021400 06005KT P6SM SCT250 
     FM022200 26006KT P6SM SCT250
       
KSAN 012251Z 27010KT 10SM CLR 22/M03 A3009 RMK AO2 RAB07E35 SLP190 P0000 T02221033
KSAN 012057Z 0121/0224 28006KT P6SM SKC 
     FM020200 VRB04KT P6SM SKC 
     FM021400 03004KT P6SM SKC 
     FM021900 25007KT P6SM SKC
       
KLAS 012256Z 31005KT 10SM CLR 15/M17 A3023 RMK AO2 SLP236 T01501167
KLAS 012047Z 0121/0224 08005KT P6SM SKC 
     FM020300 23006KT P6SM FEW250 
     FM021400 VRB05KT P6SM FEW250
       
KPHX 012251Z 35003KT 10SM FEW250 20/M14 A3016 RMK AO2 SLP205 T02001139
KPHX 012107Z 0121/0224 09006KT P6SM SKC 
     FM020000 VRB04KT P6SM SKC 
     FM020600 09008KT P6SM SKC WS020/12030KT 
     FM021600 09012G22KT P6SM SKC 
     FM022000 10008KT P6SM SKC
       
KSDF 012256Z 32008KT 10SM FEW080 SCT250 08/M04 A3024 RMK AO2 SLP240 T00831044
KSDF 011721Z 0118/0224 31010G17KT P6SM BKN250 
     FM012200 31010KT P6SM SCT250 
     FM020500 VRB05KT P6SM SKC 
     FM021300 10005KT P6SM SCT020
       
KIND 012254Z 32011KT 10SM SCT043 SCT200 03/M06 A3027 RMK AO2 SLP258 T00281056
KIND 012020Z 0120/0224 31015G23KT P6SM SCT035 SCT250 
     FM020000 34009KT P6SM FEW030 
     FM020400 01005KT P6SM SKC
       
KCVG 012252Z 31011KT 10SM FEW050 FEW250 06/M07 A3020 RMK AO2 SLP231 T00611067
KCVG 012055Z 0121/0224 30016G24KT P6SM SCT250 
     FM020000 32010KT P6SM FEW040 
     FM020300 36008KT P6SM SKC 
     FM021200 05006KT P6SM SKC 
     FM021400 12006KT P6SM SKC 
     FM021900 19006KT P6SM SKC